Time;durP1;ratioP1;P1;durP2;ratioP2;P2;SDS_P1;SDS_P2;PMS_P1;PMS_P2;Temp;Humidity;BMP_temperature;BMP_pressure;BME280_temperature;BME280_humidity;BME280_pressure;Samples;Min_cycle;Max_cycle;Signal;HPM_P1;HPM_P2
2021/07/14 00:00:21;;;;;;;11.35;6.00;;;15.80;99.90;;;;;;5042242;28;20033;-76
2021/07/14 00:02:48;;;;;;;6.55;5.22;;;15.80;99.90;;;;;;5046394;28;20403;-76
2021/07/14 00:05:17;;;;;;;8.23;5.45;;;15.80;99.90;;;;;;5042201;28;20025;-76
2021/07/14 00:07:43;;;;;;;7.05;5.03;;;16.00;99.90;;;;;;5033392;28;20332;-76
2021/07/14 00:10:17;;;;;;;7.05;5.30;;;16.20;99.90;;;;;;5033399;28;20038;-76
2021/07/14 00:12:48;;;;;;;7.45;5.13;;;16.20;99.90;;;;;;5033467;28;20111;-76
2021/07/14 00:23:29;;;;;;;10.38;5.82;;;15.60;99.90;;;;;;5033412;28;20044;-74
2021/07/14 00:25:54;;;;;;;7.88;5.00;;;15.80;99.90;;;;;;5032922;28;20018;-74
2021/07/14 00:28:20;;;;;;;11.35;5.13;;;15.50;99.90;;;;;;5032925;28;20112;-74
2021/07/14 00:30:55;;;;;;;10.68;5.88;;;15.50;99.90;;;;;;5031621;28;20025;-74
2021/07/14 00:33:21;;;;;;;11.95;6.05;;;15.60;99.90;;;;;;5032876;28;20021;-75
2021/07/14 00:35:46;;;;;;;12.02;5.93;;;15.50;99.90;;;;;;5032669;28;20029;-75
2021/07/14 00:38:12;;;;;;;9.15;5.75;;;15.40;99.90;;;;;;5032642;28;20439;-75
2021/07/14 00:40:38;;;;;;;10.65;5.90;;;15.40;99.90;;;;;;5032681;28;20033;-75
2021/07/14 00:43:04;;;;;;;9.93;6.10;;;15.50;99.90;;;;;;5032741;28;20018;-75
2021/07/14 00:45:30;;;;;;;12.07;6.03;;;15.40;99.90;;;;;;5031156;28;20025;-74
2021/07/14 00:47:58;;;;;;;8.02;5.95;;;15.40;99.90;;;;;;5032569;28;20373;-74
2021/07/14 00:50:24;;;;;;;14.23;6.82;;;15.30;99.90;;;;;;5032711;28;20079;-75
2021/07/14 00:52:49;;;;;;;6.90;6.20;;;15.30;99.90;;;;;;5032507;28;20021;-74
2021/07/14 00:55:15;;;;;;;9.57;6.15;;;15.40;99.90;;;;;;5030884;28;20029;-75
2021/07/14 00:57:41;;;;;;;9.73;6.38;;;15.40;99.90;;;;;;5032325;28;20142;-75
2021/07/14 01:00:09;;;;;;;10.55;5.82;;;15.50;99.90;;;;;;5030662;28;20035;-75
2021/07/14 01:02:35;;;;;;;6.70;5.47;;;15.50;99.90;;;;;;5031057;28;20482;-74
2021/07/14 01:05:22;;;;;;;12.25;5.65;;;15.60;99.90;;;;;;5030673;28;20037;-74
2021/07/14 01:07:59;;;;;;;9.25;6.35;;;15.40;99.90;;;;;;5032199;28;20040;-73
2021/07/14 01:10:47;;;;;;;10.13;6.00;;;15.30;99.90;;;;;;5032121;28;20030;-73
2021/07/14 01:13:24;;;;;;;11.40;6.38;;;15.40;99.90;;;;;;5032160;28;20040;-73
2021/07/14 01:16:07;;;;;;;9.35;5.82;;;15.40;99.90;;;;;;5032401;28;20022;-73
2021/07/14 01:18:48;;;;;;;7.95;5.28;;;15.40;99.90;;;;;;5030804;28;20021;-73
2021/07/14 01:21:24;;;;;;;10.23;6.10;;;15.40;99.90;;;;;;5031989;28;20018;-73
2021/07/14 01:24:06;;;;;;;9.55;6.40;;;15.40;99.90;;;;;;5032120;28;20021;-73
2021/07/14 01:26:53;;;;;;;8.50;6.20;;;15.30;99.90;;;;;;5031728;28;20484;-72
2021/07/14 01:29:20;;;;;;;10.98;6.63;;;15.20;99.90;;;;;;5031910;28;20044;-73
2021/07/14 01:31:49;;;;;;;9.13;6.60;;;15.30;99.90;;;;;;5031969;28;20029;-73
2021/07/14 01:34:16;;;;;;;13.38;6.85;;;15.30;99.90;;;;;;5030445;28;20029;-73
2021/07/14 01:36:44;;;;;;;8.88;6.10;;;15.30;99.90;;;;;;5031820;28;20404;-76
2021/07/14 01:39:11;;;;;;;9.55;6.32;;;15.30;99.90;;;;;;5035691;28;20018;-77
2021/07/14 01:41:41;;;;;;;9.27;6.65;;;15.50;99.90;;;;;;5031662;28;20021;-77
2021/07/14 01:44:07;;;;;;;11.57;8.05;;;15.50;99.90;;;;;;5030421;28;20057;-77
2021/07/14 01:46:36;;;;;;;13.55;6.60;;;15.40;99.90;;;;;;5031630;28;20100;-76
2021/07/14 01:49:07;;;;;;;9.50;6.68;;;15.30;99.90;;;;;;5031677;28;20123;-75
2021/07/14 01:51:38;;;;;;;11.77;7.00;;;15.30;99.90;;;;;;5030432;28;20053;-76
2021/07/14 01:54:05;;;;;;;13.27;6.72;;;15.30;99.90;;;;;;5031456;28;20033;-76
2021/07/14 01:56:34;;;;;;;8.77;6.53;;;15.20;99.90;;;;;;5031366;28;20021;-76
2021/07/14 01:59:01;;;;;;;10.52;6.80;;;15.30;99.90;;;;;;5031580;28;20096;-76
2021/07/14 02:01:28;;;;;;;12.10;6.65;;;15.30;99.90;;;;;;5031566;28;20025;-76
2021/07/14 02:04:30;;;;;;;9.52;6.60;;;15.20;99.90;;;;;;5030197;28;20088;-75
2021/07/14 02:06:46;;;;;;;10.70;6.30;;;15.20;99.90;;;;;;5031119;28;20056;-73
2021/07/14 02:09:12;;;;;;;9.13;7.10;;;15.30;99.90;;;;;;5030589;28;20116;-73
2021/07/14 02:11:38;;;;;;;8.80;6.60;;;15.20;99.90;;;;;;5032610;28;20037;-74
2021/07/14 02:14:04;;;;;;;10.93;6.90;;;15.30;99.90;;;;;;5035525;28;20025;-73
2021/07/14 02:16:32;;;;;;;9.88;7.13;;;15.40;99.90;;;;;;5035196;28;20092;-75
2021/07/14 02:18:59;;;;;;;11.43;6.53;;;15.30;99.90;;;;;;5035326;28;20022;-75
2021/07/14 02:21:26;;;;;;;12.52;6.68;;;15.30;99.90;;;;;;5035282;28;20025;-75
2021/07/14 02:23:52;;;;;;;9.05;6.55;;;15.30;99.90;;;;;;5035394;28;20526;-74
2021/07/14 02:26:17;;;;;;;9.23;6.43;;;15.20;99.90;;;;;;5034961;28;20101;-76
2021/07/14 02:28:43;;;;;;;9.75;6.68;;;15.20;99.90;;;;;;5035277;28;20022;-77
2021/07/14 02:31:09;;;;;;;9.43;7.13;;;15.20;99.90;;;;;;5033966;28;20029;-75
2021/07/14 02:33:34;;;;;;;9.20;7.50;;;15.20;99.90;;;;;;5033693;28;20055;-75
2021/07/14 02:36:03;;;;;;;9.57;7.03;;;15.20;99.90;;;;;;5033600;28;20017;-76
2021/07/14 02:38:38;;;;;;;12.75;6.90;;;15.10;99.90;;;;;;5033641;28;20032;-75
2021/07/14 02:41:12;;;;;;;11.30;6.53;;;15.10;99.90;;;;;;5035225;28;20022;-76
2021/07/14 02:43:43;;;;;;;11.63;7.25;;;15.10;99.90;;;;;;5035011;28;20017;-75
2021/07/14 02:46:15;;;;;;;11.90;6.63;;;15.10;99.90;;;;;;5034504;28;20594;-75
2021/07/14 02:48:44;;;;;;;9.60;6.70;;;14.90;99.90;;;;;;5034804;28;20030;-75
2021/07/14 02:51:13;;;;;;;12.68;6.20;;;14.90;99.90;;;;;;5034887;28;20103;-75
2021/07/14 02:53:47;;;;;;;7.60;6.90;;;14.90;99.90;;;;;;5034694;28;20037;-75
2021/07/14 02:56:19;;;;;;;11.52;6.82;;;14.80;99.90;;;;;;5034598;28;20017;-74
2021/07/14 02:58:49;;;;;;;9.20;6.65;;;14.90;99.90;;;;;;5034658;28;20486;-74
2021/07/14 03:01:15;;;;;;;11.98;7.90;;;14.80;99.90;;;;;;5034734;28;20484;-74
2021/07/14 03:03:42;;;;;;;11.73;7.90;;;14.70;99.90;;;;;;5034244;28;20107;-76
2021/07/14 03:06:09;;;;;;;10.82;7.63;;;14.70;99.90;;;;;;5033195;28;20025;-75
2021/07/14 03:08:35;;;;;;;12.00;8.43;;;14.70;99.90;;;;;;5033320;28;20029;-75
2021/07/14 03:11:02;;;;;;;14.60;8.05;;;14.70;99.90;;;;;;5033265;28;20468;-75
2021/07/14 03:13:31;;;;;;;9.60;7.57;;;14.80;99.90;;;;;;5031833;28;20029;-74
2021/07/14 03:15:58;;;;;;;10.13;7.85;;;14.70;99.90;;;;;;5033116;28;20067;-74
2021/07/14 03:18:30;;;;;;;11.35;7.97;;;14.70;99.90;;;;;;5031730;28;20052;-74
2021/07/14 03:20:59;;;;;;;12.73;7.85;;;14.70;99.90;;;;;;5033289;28;20388;-73
2021/07/14 03:23:25;;;;;;;13.98;7.70;;;14.70;99.90;;;;;;5033213;28;20022;-75
2021/07/14 03:25:52;;;;;;;11.95;7.63;;;14.70;99.90;;;;;;5032901;28;20033;-74
2021/07/14 03:28:19;;;;;;;13.73;9.10;;;14.70;99.90;;;;;;5033042;28;20057;-74
2021/07/14 03:30:47;;;;;;;14.23;8.57;;;14.70;99.90;;;;;;5031728;28;20026;-75
2021/07/14 03:33:13;;;;;;;12.63;9.05;;;14.60;99.90;;;;;;5031560;28;20079;-75
2021/07/14 03:35:39;;;;;;;11.85;8.80;;;14.60;99.90;;;;;;5032679;28;20033;-76
2021/07/14 03:38:09;;;;;;;12.18;8.80;;;14.60;99.90;;;;;;5032763;28;20026;-76
2021/07/14 03:40:37;;;;;;;18.38;9.90;;;14.80;99.90;;;;;;5032693;28;20430;-76
2021/07/14 03:43:04;;;;;;;19.20;8.88;;;14.80;99.90;;;;;;5032823;28;20049;-76
2021/07/14 03:45:31;;;;;;;9.38;8.23;;;14.70;99.90;;;;;;5031357;28;20026;-75
2021/07/14 03:47:58;;;;;;;13.68;9.05;;;14.90;99.90;;;;;;5032689;28;20396;-75
2021/07/14 03:50:24;;;;;;;11.50;8.48;;;14.90;99.90;;;;;;5032671;28;20540;-76
2021/07/14 03:52:51;;;;;;;14.35;9.10;;;14.90;99.90;;;;;;5032611;28;20037;-76
2021/07/14 03:55:16;;;;;;;13.75;9.40;;;14.80;99.90;;;;;;5032372;28;20025;-75
2021/07/14 03:57:42;;;;;;;11.43;8.57;;;14.80;99.90;;;;;;5032600;28;20104;-76
2021/07/14 04:00:09;;;;;;;12.60;8.77;;;14.80;99.90;;;;;;5032745;28;20038;-76
2021/07/14 04:02:37;;;;;;;11.13;8.68;;;14.70;99.90;;;;;;5032422;28;20079;-75
2021/07/14 04:05:04;;;;;;;10.40;9.05;;;14.70;99.90;;;;;;4994585;28;1068582;-75
2021/07/14 04:07:31;;;;;;;14.45;9.40;;;14.70;99.90;;;;;;5033283;28;20108;-74
2021/07/14 04:09:57;;;;;;;13.75;8.82;;;14.60;99.90;;;;;;5032119;28;20033;-75
2021/07/14 04:12:23;;;;;;;11.35;8.65;;;14.60;99.90;;;;;;5033379;28;20030;-74
2021/07/14 04:14:48;;;;;;;12.40;8.98;;;14.60;99.90;;;;;;5033010;28;20056;-76
2021/07/14 04:17:14;;;;;;;14.18;9.35;;;14.60;99.90;;;;;;5033251;28;20075;-76
2021/07/14 04:19:40;;;;;;;12.85;9.20;;;14.60;99.90;;;;;;5033187;28;20021;-76
2021/07/14 04:22:07;;;;;;;14.48;8.98;;;14.70;99.90;;;;;;5033140;28;20026;-75
2021/07/14 04:24:33;;;;;;;11.15;9.00;;;14.70;99.90;;;;;;5032759;28;20025;-76
2021/07/14 04:26:59;;;;;;;12.85;9.52;;;14.70;99.90;;;;;;5031933;28;20032;-77
2021/07/14 04:29:25;;;;;;;16.00;9.57;;;14.70;99.90;;;;;;5033164;28;20040;-77
2021/07/14 04:31:51;;;;;;;11.50;8.75;;;14.70;99.90;;;;;;5033141;28;20029;-76
2021/07/14 04:34:16;;;;;;;13.55;8.85;;;14.80;99.90;;;;;;5031424;28;20025;-76
2021/07/14 04:36:42;;;;;;;17.00;9.38;;;14.70;99.90;;;;;;5032877;28;20034;-76
2021/07/14 04:39:11;;;;;;;14.25;8.68;;;14.70;99.90;;;;;;5033359;28;20475;-76
2021/07/14 04:41:37;;;;;;;12.50;8.82;;;14.70;99.90;;;;;;5032974;28;20029;-76
2021/07/14 04:44:05;;;;;;;12.20;9.15;;;14.80;99.90;;;;;;5032973;28;20025;-76
2021/07/14 04:46:31;;;;;;;12.60;9.65;;;14.90;99.90;;;;;;5032647;28;20104;-76
2021/07/14 04:48:58;;;;;;;13.77;9.18;;;14.90;99.90;;;;;;5032859;28;20446;-75
2021/07/14 04:51:23;;;;;;;11.30;9.50;;;15.00;99.90;;;;;;5032719;28;20032;-76
2021/07/14 04:53:49;;;;;;;12.23;9.07;;;15.10;99.90;;;;;;5031231;28;20049;-75
2021/07/14 04:56:16;;;;;;;11.73;8.52;;;15.00;99.90;;;;;;5032331;28;20033;-77
2021/07/14 04:58:43;;;;;;;10.30;8.93;;;15.00;99.90;;;;;;5032546;28;20021;-77
2021/07/14 05:01:08;;;;;;;10.27;8.98;;;15.00;99.90;;;;;;5032647;28;20066;-77
2021/07/14 05:03:34;;;;;;;12.18;9.02;;;15.10;99.90;;;;;;5031159;28;20117;-77
2021/07/14 05:05:59;;;;;;;11.98;8.80;;;15.10;99.90;;;;;;5031002;28;20472;-76
2021/07/14 05:08:25;;;;;;;11.00;8.50;;;15.20;99.90;;;;;;5032378;28;20108;-76
2021/07/14 05:10:51;;;;;;;13.02;8.00;;;15.20;99.90;;;;;;5032426;28;20025;-76
2021/07/14 05:13:17;;;;;;;10.30;8.18;;;15.40;99.90;;;;;;5032306;28;20037;-76
2021/07/14 05:15:44;;;;;;;13.00;8.57;;;15.60;99.90;;;;;;5032049;28;20053;-76
2021/07/14 05:18:11;;;;;;;15.27;9.40;;;15.50;99.90;;;;;;5032197;28;20032;-76
2021/07/14 05:20:36;;;;;;;11.38;9.07;;;15.40;99.90;;;;;;5032159;28;20025;-76
2021/07/14 05:23:02;;;;;;;10.65;9.20;;;15.40;99.90;;;;;;5032096;28;20479;-75
2021/07/14 05:25:27;;;;;;;11.00;8.70;;;15.50;99.90;;;;;;5032006;28;20026;-77
2021/07/14 05:27:53;;;;;;;11.23;8.63;;;15.50;99.90;;;;;;5030804;28;20087;-76
2021/07/14 05:30:18;;;;;;;11.23;8.23;;;15.60;99.90;;;;;;5032113;28;20037;-77
2021/07/14 05:32:44;;;;;;;9.88;8.15;;;15.70;99.90;;;;;;5032004;28;20025;-77
2021/07/14 05:35:10;;;;;;;11.95;8.43;;;15.80;99.90;;;;;;5031774;28;20535;-77
2021/07/14 05:37:36;;;;;;;8.82;7.70;;;15.60;99.90;;;;;;5031838;28;20083;-76
2021/07/14 05:40:02;;;;;;;14.55;8.05;;;15.50;99.90;;;;;;5017560;28;20029;-77
2021/07/14 05:42:27;;;;;;;11.13;7.97;;;15.30;99.90;;;;;;5029529;28;20434;-77
2021/07/14 05:44:53;;;;;;;12.75;8.60;;;15.20;99.90;;;;;;5031619;28;20033;-77
2021/07/14 05:47:18;;;;;;;11.40;8.18;;;15.20;99.90;;;;;;5030525;28;20026;-77
2021/07/14 05:49:44;;;;;;;9.63;8.27;;;15.30;99.90;;;;;;5032106;28;20419;-78
2021/07/14 05:52:12;;;;;;;10.73;8.65;;;15.20;99.90;;;;;;5032391;28;20100;-77
2021/07/14 05:54:37;;;;;;;12.73;9.63;;;15.20;99.90;;;;;;5031632;28;20025;-77
2021/07/14 05:57:03;;;;;;;13.07;9.32;;;15.40;99.90;;;;;;5031638;28;20022;-76
2021/07/14 05:59:29;;;;;;;11.18;8.77;;;15.30;99.90;;;;;;5031736;28;20436;-77
2021/07/14 06:01:54;;;;;;;13.63;8.88;;;15.40;99.90;;;;;;5030463;28;20080;-76
2021/07/14 06:04:20;;;;;;;11.77;9.35;;;15.20;99.90;;;;;;5031497;28;20033;-76
2021/07/14 06:06:45;;;;;;;13.10;10.48;;;15.20;99.90;;;;;;5031493;28;20559;-77
2021/07/14 06:09:11;;;;;;;18.83;9.98;;;15.30;99.90;;;;;;5031740;28;20033;-77
2021/07/14 06:11:36;;;;;;;11.85;9.43;;;15.20;99.90;;;;;;5031632;28;20032;-77
2021/07/14 06:14:03;;;;;;;8.38;7.45;;;15.10;99.90;;;;;;5031483;28;20533;-77
2021/07/14 06:16:28;;;;;;;10.70;7.82;;;15.10;99.90;;;;;;5030072;28;20069;-76
2021/07/14 06:18:54;;;;;;;11.60;7.68;;;15.10;99.90;;;;;;5030267;28;20029;-77
2021/07/14 06:21:21;;;;;;;7.95;6.95;;;15.00;99.90;;;;;;5031545;28;20025;-77
2021/07/14 06:23:47;;;;;;;10.60;7.13;;;15.10;99.90;;;;;;5031521;28;20029;-77
2021/07/14 06:26:13;;;;;;;10.80;7.03;;;15.10;99.90;;;;;;5032839;28;20029;-79
2021/07/14 06:28:38;;;;;;;9.50;6.70;;;15.10;99.90;;;;;;5032461;28;20036;-77
2021/07/14 06:31:04;;;;;;;8.73;6.97;;;15.00;99.90;;;;;;5031501;28;20391;-76
2021/07/14 06:33:29;;;;;;;9.40;7.68;;;15.20;99.90;;;;;;5031875;28;20029;-76
2021/07/14 06:35:55;;;;;;;11.95;7.40;;;15.20;99.90;;;;;;5031206;28;20387;-76
2021/07/14 06:38:21;;;;;;;7.00;6.20;;;15.20;99.90;;;;;;5030574;28;20026;-76
2021/07/14 06:40:48;;;;;;;5.78;5.15;;;15.50;99.90;;;;;;5015241;28;20021;-77
2021/07/14 06:43:16;;;;;;;6.85;5.32;;;15.40;99.90;;;;;;5031334;28;20021;-77
2021/07/14 06:45:47;;;;;;;7.25;5.00;;;15.30;99.90;;;;;;5031151;28;20018;-77
2021/07/14 06:48:13;;;;;;;8.43;5.60;;;15.30;99.90;;;;;;5030116;28;20107;-76
2021/07/14 06:50:39;;;;;;;6.38;5.78;;;15.20;99.90;;;;;;5031294;28;20036;-77
2021/07/14 06:53:04;;;;;;;9.68;7.28;;;15.30;99.90;;;;;;5031260;28;20018;-77
2021/07/14 06:55:31;;;;;;;12.50;7.90;;;15.30;99.90;;;;;;5029741;28;20120;-77
2021/07/14 06:57:56;;;;;;;8.80;7.15;;;15.30;99.90;;;;;;5032616;28;20499;-77
2021/07/14 07:00:22;;;;;;;8.23;7.43;;;15.30;99.90;;;;;;5034913;28;20041;-76
2021/07/14 07:02:47;;;;;;;8.80;5.20;;;15.30;99.90;;;;;;5034880;28;20022;-76
2021/07/14 07:05:13;;;;;;;4.97;4.50;;;14.90;99.90;;;;;;5033229;28;20040;-75
2021/07/14 07:07:39;;;;;;;5.20;4.70;;;14.90;99.90;;;;;;5034728;28;20030;-76
2021/07/14 07:10:05;;;;;;;7.78;4.35;;;15.00;99.90;;;;;;5033472;28;20107;-76
2021/07/14 07:12:32;;;;;;;4.90;4.40;;;15.20;99.90;;;;;;5033320;28;20112;-75
2021/07/14 07:14:57;;;;;;;4.32;3.80;;;15.30;99.90;;;;;;5034270;28;20041;-76
2021/07/14 07:17:23;;;;;;;5.97;4.18;;;15.50;99.90;;;;;;5033160;28;20082;-76
2021/07/14 07:19:48;;;;;;;4.82;3.90;;;15.30;99.90;;;;;;5034557;28;20544;-75
2021/07/14 07:22:14;;;;;;;5.00;4.15;;;15.40;99.90;;;;;;5034531;28;20022;-75
2021/07/14 07:24:39;;;;;;;5.78;4.10;;;15.40;99.90;;;;;;5034346;28;20030;-76
2021/07/14 07:27:08;;;;;;;4.70;4.18;;;15.40;99.90;;;;;;5034484;28;20531;-75
2021/07/14 07:29:34;;;;;;;5.68;4.57;;;15.40;99.90;;;;;;5034957;28;20394;-75
2021/07/14 07:32:00;;;;;;;5.28;4.28;;;15.40;99.90;;;;;;5033282;28;20026;-76
2021/07/14 07:34:25;;;;;;;5.75;4.65;;;15.40;99.90;;;;;;5034127;28;20031;-77
2021/07/14 07:36:51;;;;;;;6.22;4.05;;;15.40;99.90;;;;;;5034217;28;20056;-77
2021/07/14 07:39:17;;;;;;;6.20;4.18;;;15.40;99.90;;;;;;5033154;28;20476;-76
2021/07/14 07:41:43;;;;;;;8.95;4.45;;;15.30;99.90;;;;;;5032904;28;20033;-76
2021/07/14 07:44:09;;;;;;;6.75;4.63;;;15.20;99.90;;;;;;5032923;28;20503;-76
2021/07/14 07:46:35;;;;;;;8.40;5.25;;;15.30;99.90;;;;;;5033915;28;20029;-77
2021/07/14 07:49:02;;;;;;;14.68;6.10;;;15.30;99.90;;;;;;5034066;28;20022;-77
2021/07/14 07:51:28;;;;;;;7.05;5.38;;;15.30;99.90;;;;;;5033926;28;20025;-76
2021/07/14 07:53:53;;;;;;;6.30;5.40;;;15.30;99.90;;;;;;5033791;28;20022;-77
2021/07/14 07:56:20;;;;;;;6.05;5.43;;;15.30;99.90;;;;;;5032295;28;20053;-76
2021/07/14 07:58:46;;;;;;;5.80;5.20;;;15.30;99.90;;;;;;5034581;28;20033;-78
2021/07/14 08:01:11;;;;;;;6.65;5.57;;;15.40;99.90;;;;;;5033048;28;20144;-77
2021/07/14 08:03:37;;;;;;;6.90;5.57;;;15.40;99.90;;;;;;5033410;28;20167;-77
2021/07/14 08:06:03;;;;;;;6.22;5.47;;;15.40;99.90;;;;;;5033444;28;20034;-77
2021/07/14 08:08:28;;;;;;;6.47;5.75;;;15.60;99.90;;;;;;5031373;28;20033;-77
2021/07/14 08:10:56;;;;;;;6.47;5.88;;;15.70;99.90;;;;;;5032919;28;20029;-77
2021/07/14 08:13:22;;;;;;;7.43;5.70;;;15.50;99.90;;;;;;5034184;28;20021;-77
2021/07/14 08:15:48;;;;;;;6.57;5.43;;;15.50;99.90;;;;;;5033223;28;20033;-77
2021/07/14 08:18:13;;;;;;;6.28;5.60;;;15.50;99.90;;;;;;5034530;28;20014;-78
2021/07/14 08:20:39;;;;;;;5.82;5.32;;;15.60;99.90;;;;;;5040922;28;20476;-78
2021/07/14 08:23:05;;;;;;;6.00;5.13;;;15.60;99.90;;;;;;5032364;28;20021;-78
2021/07/14 08:25:30;;;;;;;7.82;5.90;;;15.50;99.90;;;;;;5033391;28;20021;-77
2021/07/14 08:27:56;;;;;;;8.27;6.78;;;15.40;99.90;;;;;;5031644;28;20033;-77
2021/07/14 08:30:21;;;;;;;7.13;5.45;;;15.40;99.90;;;;;;5031741;28;20029;-77
2021/07/14 08:32:48;;;;;;;10.15;6.20;;;15.50;99.90;;;;;;5035161;28;20067;-77
2021/07/14 08:35:14;;;;;;;7.22;6.53;;;15.50;99.90;;;;;;5041836;28;20032;-76
2021/07/14 08:37:40;;;;;;;6.53;5.93;;;15.60;99.90;;;;;;5031603;28;20026;-77
2021/07/14 08:40:07;;;;;;;7.43;6.57;;;15.50;99.90;;;;;;5032897;28;20067;-76
2021/07/14 08:42:36;;;;;;;11.10;7.20;;;15.70;99.90;;;;;;5032790;28;20038;-77
2021/07/14 08:45:04;;;;;;;8.57;7.38;;;15.80;99.90;;;;;;5032751;28;20057;-77
2021/07/14 08:47:30;;;;;;;8.98;7.95;;;15.80;99.90;;;;;;5032682;28;20399;-77
2021/07/14 08:49:56;;;;;;;10.13;7.97;;;15.90;99.90;;;;;;5032740;28;20036;-77
2021/07/14 08:52:22;;;;;;;8.90;7.80;;;15.90;99.90;;;;;;5032766;28;20123;-77
2021/07/14 08:54:48;;;;;;;10.13;8.77;;;16.00;99.90;;;;;;5032454;28;20504;-77
2021/07/14 08:57:16;;;;;;;9.35;8.35;;;15.90;99.90;;;;;;5031231;28;20087;-77
2021/07/14 08:59:43;;;;;;;13.18;10.23;;;15.90;99.90;;;;;;5032557;28;20498;-77
2021/07/14 09:02:09;;;;;;;11.43;10.23;;;15.90;99.90;;;;;;5038781;28;20021;-77
2021/07/14 09:04:35;;;;;;;11.63;10.02;;;16.00;99.90;;;;;;5044306;28;20033;-77
2021/07/14 09:07:01;;;;;;;11.25;9.50;;;16.00;99.90;;;;;;5032594;28;20079;-77
2021/07/14 09:09:28;;;;;;;10.30;9.18;;;15.90;99.90;;;;;;5032475;28;20438;-76
2021/07/14 09:11:59;;;;;;;10.75;9.60;;;15.70;99.90;;;;;;5031246;28;20140;-76
2021/07/14 09:14:28;;;;;;;10.32;9.27;;;15.80;99.90;;;;;;5030995;28;20036;-76
2021/07/14 09:16:54;;;;;;;12.18;9.30;;;15.60;99.90;;;;;;5031915;28;20075;-75
2021/07/14 09:19:27;;;;;;;10.05;9.05;;;15.80;99.90;;;;;;5033291;28;20032;-75
2021/07/14 09:21:53;;;;;;;10.80;9.48;;;15.80;99.90;;;;;;5038322;28;20031;-76
2021/07/14 09:24:26;;;;;;;11.15;9.35;;;15.70;99.90;;;;;;5035976;28;20030;-75
2021/07/14 09:26:53;;;;;;;11.30;9.45;;;15.80;99.90;;;;;;5045433;28;20021;-75
2021/07/14 09:29:19;;;;;;;10.88;9.77;;;15.90;99.90;;;;;;5037123;28;20129;-75
2021/07/14 09:31:45;;;;;;;13.13;9.88;;;15.90;99.90;;;;;;5030513;28;20551;-75
2021/07/14 09:34:24;;;;;;;11.68;10.48;;;16.00;99.90;;;;;;5037980;28;20029;-76
2021/07/14 09:36:49;;;;;;;14.48;10.00;;;16.00;99.90;;;;;;5032961;28;20120;-76
2021/07/14 09:39:27;;;;;;;11.13;9.63;;;15.90;99.90;;;;;;5034928;28;20109;-75
2021/07/14 09:42:00;;;;;;;12.38;10.93;;;16.10;99.90;;;;;;5035620;28;20116;-75
2021/07/14 09:44:25;;;;;;;12.80;10.32;;;16.50;99.90;;;;;;5032583;28;20021;-75
2021/07/14 09:47:13;;;;;;;11.75;10.55;;;16.70;99.90;;;;;;5037067;28;20024;-76
2021/07/14 09:49:38;;;;;;;8.35;7.53;;;16.80;99.90;;;;;;5031391;28;20025;-75
2021/07/14 09:52:09;;;;;;;10.25;9.23;;;16.80;99.90;;;;;;5037083;28;20029;-76
2021/07/14 09:54:35;;;;;;;10.30;9.25;;;16.70;99.90;;;;;;5032028;28;20484;-75
2021/07/14 09:57:12;;;;;;;8.63;7.80;;;16.80;99.90;;;;;;5040638;28;20117;-76
2021/07/14 09:59:37;;;;;;;8.35;7.53;;;17.00;99.90;;;;;;5012101;28;20025;-76
2021/07/14 10:02:04;;;;;;;7.28;6.57;;;16.90;99.90;;;;;;5030642;28;20032;-77
2021/07/14 10:04:34;;;;;;;8.48;7.40;;;16.90;99.90;;;;;;5030637;28;20083;-77
2021/07/14 10:07:24;;;;;;;7.40;6.70;;;16.80;99.90;;;;;;5031435;28;20022;-77
2021/07/14 10:09:50;;;;;;;7.32;6.22;;;16.90;99.90;;;;;;5030410;28;20022;-77
2021/07/14 10:12:28;;;;;;;8.88;6.80;;;16.70;99.90;;;;;;5033270;28;20589;-76
2021/07/14 10:14:59;;;;;;;9.45;8.55;;;16.70;99.90;;;;;;5032852;28;20018;-76
2021/07/14 10:17:44;;;;;;;9.45;8.35;;;16.90;99.90;;;;;;5013299;28;20461;-76
2021/07/14 10:20:21;;;;;;;9.30;7.65;;;16.90;99.90;;;;;;5037010;28;20032;-77
2021/07/14 10:23:00;;;;;;;8.55;7.60;;;16.90;99.90;;;;;;5033259;28;20029;-76
2021/07/14 10:25:27;;;;;;;9.07;8.20;;;17.20;99.90;;;;;;5031433;28;20033;-76
2021/07/14 10:27:55;;;;;;;7.88;7.10;;;17.40;99.90;;;;;;5039822;28;20023;-77
2021/07/14 10:30:22;;;;;;;7.40;6.68;;;17.50;99.90;;;;;;5037384;28;20090;-77
2021/07/14 10:32:48;;;;;;;7.28;6.68;;;17.50;99.90;;;;;;5040951;28;20029;-76
2021/07/14 10:35:17;;;;;;;6.78;6.18;;;17.40;99.90;;;;;;5043278;28;20032;-76
2021/07/14 10:37:49;;;;;;;6.70;6.00;;;17.90;99.90;;;;;;5037262;28;20030;-77
2021/07/14 10:40:21;;;;;;;7.47;6.03;;;18.20;99.90;;;;;;5046899;28;20044;-77
2021/07/14 10:42:48;;;;;;;9.85;5.93;;;17.90;99.90;;;;;;5035925;28;20037;-77
2021/07/14 10:45:15;;;;;;;6.70;5.97;;;18.00;99.90;;;;;;5037281;28;20101;-76
2021/07/14 10:47:43;;;;;;;6.72;5.75;;;17.80;99.90;;;;;;5039084;28;20032;-76
2021/07/14 10:50:10;;;;;;;6.05;5.50;;;17.60;99.90;;;;;;5044694;28;20035;-76
2021/07/14 10:52:37;;;;;;;6.82;5.35;;;17.80;99.90;;;;;;5054952;28;20121;-76
2021/07/14 10:55:04;;;;;;;6.10;5.50;;;17.60;99.90;;;;;;5045558;28;20075;-76
2021/07/14 10:57:31;;;;;;;6.13;5.53;;;17.60;99.90;;;;;;5049103;28;20017;-76
2021/07/14 10:59:57;;;;;;;6.63;5.35;;;17.60;99.90;;;;;;5038449;28;20472;-77
2021/07/14 11:02:49;;;;;;;7.72;5.63;;;17.60;99.90;;;;;;5040276;28;20032;-76
2021/07/14 11:05:16;;;;;;;6.63;6.03;;;17.50;99.90;;;;;;5037287;28;20032;-76
2021/07/14 11:07:46;;;;;;;5.80;5.30;;;17.30;99.90;;;;;;5043665;28;20021;-76
2021/07/14 11:10:28;;;;;;;6.13;5.53;;;17.30;99.90;;;;;;5045043;28;20022;-77
2021/07/14 11:12:59;;;;;;;7.68;5.50;;;17.60;99.90;;;;;;5046851;28;20021;-76
2021/07/14 11:15:30;;;;;;;6.20;5.60;;;17.90;99.90;;;;;;5046548;28;20021;-76
2021/07/14 11:17:55;;;;;;;6.15;5.55;;;17.90;99.90;;;;;;5041064;28;20017;-77
2021/07/14 11:20:21;;;;;;;7.13;5.32;;;17.60;99.90;;;;;;5033191;28;20494;-77
2021/07/14 11:22:49;;;;;;;5.03;4.63;;;17.40;99.90;;;;;;5038130;28;20037;-76
2021/07/14 11:25:22;;;;;;;8.13;5.22;;;17.60;99.90;;;;;;5043284;28;20629;-76
2021/07/14 11:27:53;;;;;;;5.10;4.70;;;17.70;99.90;;;;;;5047301;28;20021;-77
2021/07/14 11:30:26;;;;;;;7.28;4.85;;;17.70;99.90;;;;;;5050649;28;21262;-77
2021/07/14 11:32:53;;;;;;;5.03;4.63;;;17.70;99.90;;;;;;5034186;28;20025;-76
2021/07/14 11:35:22;;;;;;;5.03;4.53;;;17.80;99.90;;;;;;5034129;28;20030;-76
2021/07/14 11:37:50;;;;;;;6.47;4.35;;;18.00;99.90;;;;;;5034196;28;20100;-76
2021/07/14 11:40:18;;;;;;;4.22;3.92;;;18.20;99.90;;;;;;5034223;28;20060;-76
2021/07/14 11:42:48;;;;;;;3.40;3.10;;;18.30;99.90;;;;;;5034242;28;20022;-77
2021/07/14 11:45:14;;;;;;;4.63;3.75;;;18.40;99.90;;;;;;5033969;28;20029;-77
2021/07/14 11:47:40;;;;;;;4.15;3.03;;;18.60;99.90;;;;;;5033896;28;20084;-78
2021/07/14 11:50:07;;;;;;;3.35;3.05;;;19.10;99.90;;;;;;5032718;28;20699;-77
2021/07/14 11:52:43;;;;;;;3.70;2.97;;;19.10;99.90;;;;;;5033699;28;20120;-77
2021/07/14 11:55:24;;;;;;;;;;;18.40;99.90;;;;;;5033962;28;20061;-77
2021/07/14 11:57:50;;;;;;;3.40;2.95;;;18.40;99.90;;;;;;5033748;28;19905;-77
2021/07/14 12:00:17;;;;;;;6.72;2.88;;;19.00;99.90;;;;;;5032432;28;20053;-78
2021/07/14 12:03:03;;;;;;;5.15;2.80;;;19.20;99.90;;;;;;5033683;28;20022;-76
2021/07/14 12:05:33;;;;;;;2.80;2.58;;;19.00;99.90;;;;;;5044894;28;20112;-77
2021/07/14 12:08:13;;;;;;;4.00;2.65;;;18.60;99.90;;;;;;5033529;28;20030;-76
2021/07/14 12:10:41;;;;;;;2.85;2.45;;;18.40;99.90;;;;;;5033685;28;20100;-76
2021/07/14 12:13:07;;;;;;;5.68;2.33;;;18.50;99.90;;;;;;5021011;28;20033;-76
2021/07/14 12:15:46;;;;;;;2.55;2.20;;;18.60;99.90;;;;;;5031997;28;20040;-76
2021/07/14 12:18:12;;;;;;;2.53;2.33;;;18.90;99.90;;;;;;5033391;28;20022;-76
2021/07/14 12:20:46;;;;;;;2.83;2.17;;;18.70;99.90;;;;;;5032050;28;20028;-76
2021/07/14 12:23:16;;;;;;;2.65;2.30;;;18.80;99.90;;;;;;5013594;28;20029;-76
2021/07/14 12:25:42;;;;;;;2.20;2.00;;;18.70;99.90;;;;;;5025628;28;20029;-76
2021/07/14 12:28:16;;;;;;;2.20;1.90;;;18.90;99.90;;;;;;5031780;28;20060;-75
2021/07/14 12:30:47;;;;;;;4.72;2.00;;;19.00;99.90;;;;;;5046871;28;20017;-76
2021/07/14 12:33:15;;;;;;;2.00;1.90;;;19.00;99.90;;;;;;5044938;28;20081;-76
2021/07/14 12:35:42;;;;;;;3.15;1.98;;;18.90;99.90;;;;;;5032850;28;20029;-76
2021/07/14 12:38:15;;;;;;;2.67;2.10;;;18.80;99.90;;;;;;5032971;28;20018;-77
2021/07/14 12:40:44;;;;;;;2.08;1.88;;;18.90;99.90;;;;;;5015768;28;20014;-78
2021/07/14 12:43:16;;;;;;;3.05;1.98;;;18.90;99.90;;;;;;5036849;28;20027;-77
2021/07/14 12:45:43;;;;;;;3.67;2.20;;;18.80;99.90;;;;;;5039927;28;20079;-76
2021/07/14 12:48:11;;;;;;;2.13;1.92;;;18.90;99.90;;;;;;5034232;28;20108;-75
2021/07/14 12:50:39;;;;;;;2.53;1.90;;;18.90;99.90;;;;;;5036850;28;20464;-77
2021/07/14 12:53:06;;;;;;;1.98;1.80;;;19.00;99.90;;;;;;5040870;28;20024;-77
2021/07/14 12:55:35;;;;;;;2.40;2.13;;;19.00;99.90;;;;;;5031720;28;20078;-77